sensor_id;sensor_type;location;lat;lon;timestamp;P1;durP1;ratioP1;P2;durP2;ratioP2
21030;SDS011;61072;47.808;7.636;2023-07-08T05:37:33;7.82;;;2.75;;
21030;SDS011;61072;47.808;7.636;2023-07-08T05:39:59;4.38;;;2.30;;
21030;SDS011;61072;47.808;7.636;2023-07-08T05:42:29;6.70;;;2.05;;
21030;SDS011;61072;47.808;7.636;2023-07-08T05:44:55;3.72;;;2.08;;
21030;SDS011;61072;47.808;7.636;2023-07-08T05:47:22;6.03;;;2.03;;
21030;SDS011;61072;47.808;7.636;2023-07-08T05:49:49;4.70;;;2.55;;
21030;SDS011;61072;47.808;7.636;2023-07-08T05:52:16;2.90;;;1.55;;
21030;SDS011;61072;47.808;7.636;2023-07-08T05:54:42;5.18;;;1.90;;
21030;SDS011;61072;47.808;7.636;2023-07-08T05:57:10;3.22;;;1.80;;
21030;SDS011;61072;47.808;7.636;2023-07-08T05:59:37;6.20;;;1.88;;
21030;SDS011;61072;47.808;7.636;2023-07-08T06:02:10;3.97;;;1.60;;
21030;SDS011;61072;47.808;7.636;2023-07-08T06:04:39;5.18;;;1.80;;
21030;SDS011;61072;47.808;7.636;2023-07-08T06:07:06;3.25;;;1.20;;
21030;SDS011;61072;47.808;7.636;2023-07-08T06:09:33;2.45;;;1.08;;
21030;SDS011;61072;47.808;7.636;2023-07-08T06:12:00;2.33;;;1.30;;
21030;SDS011;61072;47.808;7.636;2023-07-08T06:14:27;3.55;;;1.17;;
21030;SDS011;61072;47.808;7.636;2023-07-08T06:16:54;2.75;;;1.38;;
21030;SDS011;61072;47.808;7.636;2023-07-08T06:19:21;4.32;;;1.52;;
21030;SDS011;61072;47.808;7.636;2023-07-08T06:21:48;2.10;;;1.10;;
21030;SDS011;61072;47.808;7.636;2023-07-08T06:24:15;2.15;;;1.33;;
21030;SDS011;61072;47.808;7.636;2023-07-08T06:26:42;1.67;;;1.23;;
21030;SDS011;61072;47.808;7.636;2023-07-08T06:29:08;2.05;;;1.05;;
21030;SDS011;61072;47.808;7.636;2023-07-08T06:31:35;5.10;;;1.30;;
21030;SDS011;61072;47.808;7.636;2023-07-08T06:34:02;1.70;;;1.00;;
21030;SDS011;61072;47.808;7.636;2023-07-08T06:36:30;1.98;;;0.77;;
21030;SDS011;61072;47.808;7.636;2023-07-08T06:38:57;2.65;;;1.27;;
21030;SDS011;61072;47.808;7.636;2023-07-08T06:41:24;2.28;;;1.90;;
21030;SDS011;61072;47.808;7.636;2023-07-08T06:43:51;3.88;;;2.30;;
21030;SDS011;61072;47.808;7.636;2023-07-08T06:46:19;2.10;;;1.60;;
21030;SDS011;61072;47.808;7.636;2023-07-08T06:48:46;3.13;;;1.52;;
21030;SDS011;61072;47.808;7.636;2023-07-08T06:51:12;1.73;;;0.90;;
21030;SDS011;61072;47.808;7.636;2023-07-08T06:53:39;1.58;;;0.80;;
21030;SDS011;61072;47.808;7.636;2023-07-08T06:56:06;2.53;;;1.02;;
21030;SDS011;61072;47.808;7.636;2023-07-08T06:58:33;2.33;;;1.05;;
21030;SDS011;61072;47.808;7.636;2023-07-08T07:01:00;1.58;;;1.10;;
21030;SDS011;61072;47.808;7.636;2023-07-08T07:03:27;2.25;;;1.00;;
21030;SDS011;61072;47.808;7.636;2023-07-08T07:05:54;1.25;;;0.80;;
21030;SDS011;61072;47.808;7.636;2023-07-08T07:08:21;3.10;;;1.02;;
21030;SDS011;61072;47.808;7.636;2023-07-08T07:10:48;0.70;;;0.70;;
21030;SDS011;61072;47.808;7.636;2023-07-08T07:13:14;1.35;;;0.60;;
21030;SDS011;61072;47.808;7.636;2023-07-08T07:15:41;2.58;;;0.88;;
21030;SDS011;61072;47.808;7.636;2023-07-08T07:18:08;0.90;;;0.80;;
21030;SDS011;61072;47.808;7.636;2023-07-08T07:20:36;0.85;;;0.63;;
21030;SDS011;61072;47.808;7.636;2023-07-08T07:23:04;1.85;;;1.13;;
21030;SDS011;61072;47.808;7.636;2023-07-08T07:25:30;1.58;;;0.60;;
21030;SDS011;61072;47.808;7.636;2023-07-08T07:27:57;1.70;;;0.95;;
21030;SDS011;61072;47.808;7.636;2023-07-08T07:30:25;2.17;;;0.82;;
21030;SDS011;61072;47.808;7.636;2023-07-08T07:32:51;1.65;;;0.90;;
21030;SDS011;61072;47.808;7.636;2023-07-08T07:35:18;3.08;;;1.00;;
21030;SDS011;61072;47.808;7.636;2023-07-08T07:37:45;3.05;;;1.20;;
21030;SDS011;61072;47.808;7.636;2023-07-08T07:40:12;1.60;;;1.00;;
21030;SDS011;61072;47.808;7.636;2023-07-08T07:42:42;2.35;;;1.00;;
21030;SDS011;61072;47.808;7.636;2023-07-08T07:45:10;2.28;;;1.10;;
21030;SDS011;61072;47.808;7.636;2023-07-08T07:47:38;2.67;;;1.20;;
21030;SDS011;61072;47.808;7.636;2023-07-08T07:50:05;1.85;;;1.10;;
21030;SDS011;61072;47.808;7.636;2023-07-08T07:52:34;2.53;;;0.93;;
21030;SDS011;61072;47.808;7.636;2023-07-08T07:55:02;1.90;;;1.30;;
21030;SDS011;61072;47.808;7.636;2023-07-08T07:57:29;1.45;;;1.10;;
21030;SDS011;61072;47.808;7.636;2023-07-08T07:59:56;2.60;;;1.60;;
21030;SDS011;61072;47.808;7.636;2023-07-08T08:02:23;3.33;;;1.20;;
21030;SDS011;61072;47.808;7.636;2023-07-08T08:04:49;2.05;;;1.23;;
21030;SDS011;61072;47.808;7.636;2023-07-08T08:07:16;4.13;;;1.35;;
21030;SDS011;61072;47.808;7.636;2023-07-08T08:09:43;4.50;;;1.10;;
21030;SDS011;61072;47.808;7.636;2023-07-08T08:12:10;1.52;;;0.82;;
21030;SDS011;61072;47.808;7.636;2023-07-08T08:14:38;1.38;;;1.02;;
21030;SDS011;61072;47.808;7.636;2023-07-08T08:17:05;4.40;;;1.00;;
21030;SDS011;61072;47.808;7.636;2023-07-08T08:19:32;1.45;;;0.80;;
21030;SDS011;61072;47.808;7.636;2023-07-08T08:21:59;2.20;;;1.20;;
21030;SDS011;61072;47.808;7.636;2023-07-08T08:24:26;1.40;;;0.93;;
21030;SDS011;61072;47.808;7.636;2023-07-08T08:26:53;1.00;;;0.85;;
21030;SDS011;61072;47.808;7.636;2023-07-08T08:29:20;2.75;;;1.88;;
21030;SDS011;61072;47.808;7.636;2023-07-08T08:31:47;4.05;;;1.23;;
21030;SDS011;61072;47.808;7.636;2023-07-08T08:34:14;1.95;;;1.00;;
21030;SDS011;61072;47.808;7.636;2023-07-08T08:36:41;1.10;;;0.95;;
21030;SDS011;61072;47.808;7.636;2023-07-08T08:39:08;3.75;;;1.40;;
21030;SDS011;61072;47.808;7.636;2023-07-08T08:41:36;2.22;;;1.38;;
21030;SDS011;61072;47.808;7.636;2023-07-08T08:44:05;4.18;;;1.52;;
21030;SDS011;61072;47.808;7.636;2023-07-08T08:51:48;1.75;;;1.13;;
21030;SDS011;61072;47.808;7.636;2023-07-08T08:54:16;1.60;;;1.10;;
21030;SDS011;61072;47.808;7.636;2023-07-08T08:59:27;2.47;;;0.95;;
21030;SDS011;61072;47.808;7.636;2023-07-08T09:01:59;2.65;;;1.40;;
21030;SDS011;61072;47.808;7.636;2023-07-08T09:04:32;1.52;;;1.17;;
21030;SDS011;61072;47.808;7.636;2023-07-08T09:07:05;2.28;;;1.23;;
21030;SDS011;61072;47.808;7.636;2023-07-08T09:09:41;3.00;;;1.65;;
21030;SDS011;61072;47.808;7.636;2023-07-08T09:12:18;2.22;;;1.20;;
21030;SDS011;61072;47.808;7.636;2023-07-08T09:14:51;1.52;;;1.30;;
21030;SDS011;61072;47.808;7.636;2023-07-08T09:25:17;2.83;;;1.42;;
21030;SDS011;61072;47.808;7.636;2023-07-08T09:27:46;3.38;;;1.25;;
21030;SDS011;61072;47.808;7.636;2023-07-08T09:30:17;3.55;;;1.23;;
21030;SDS011;61072;47.808;7.636;2023-07-08T09:32:49;3.88;;;1.05;;
21030;SDS011;61072;47.808;7.636;2023-07-08T09:35:17;1.92;;;1.00;;
21030;SDS011;61072;47.808;7.636;2023-07-08T09:37:49;2.70;;;1.02;;
21030;SDS011;61072;47.808;7.636;2023-07-08T09:42:44;2.00;;;0.85;;
21030;SDS011;61072;47.808;7.636;2023-07-08T09:45:16;3.28;;;0.98;;
21030;SDS011;61072;47.808;7.636;2023-07-08T09:47:54;2.08;;;1.33;;
21030;SDS011;61072;47.808;7.636;2023-07-08T09:50:26;5.35;;;2.05;;
21030;SDS011;61072;47.808;7.636;2023-07-08T09:52:55;3.72;;;1.33;;
21030;SDS011;61072;47.808;7.636;2023-07-08T09:55:25;2.45;;;1.25;;
21030;SDS011;61072;47.808;7.636;2023-07-08T09:57:52;1.63;;;1.02;;
21030;SDS011;61072;47.808;7.636;2023-07-08T10:00:27;1.52;;;1.17;;
21030;SDS011;61072;47.808;7.636;2023-07-08T10:03:03;2.33;;;1.10;;
21030;SDS011;61072;47.808;7.636;2023-07-08T10:05:48;1.25;;;1.15;;
21030;SDS011;61072;47.808;7.636;2023-07-08T10:08:20;1.48;;;0.90;;
21030;SDS011;61072;47.808;7.636;2023-07-08T10:10:58;3.58;;;1.20;;
21030;SDS011;61072;47.808;7.636;2023-07-08T10:13:40;1.70;;;1.25;;
21030;SDS011;61072;47.808;7.636;2023-07-08T10:18:39;1.58;;;0.90;;
21030;SDS011;61072;47.808;7.636;2023-07-08T10:21:08;1.50;;;1.00;;
21030;SDS011;61072;47.808;7.636;2023-07-08T10:23:48;3.95;;;0.90;;
21030;SDS011;61072;47.808;7.636;2023-07-08T10:26:32;1.98;;;1.10;;
21030;SDS011;61072;47.808;7.636;2023-07-08T10:31:31;2.50;;;1.00;;
21030;SDS011;61072;47.808;7.636;2023-07-08T10:34:59;2.60;;;1.27;;
21030;SDS011;61072;47.808;7.636;2023-07-08T10:37:11;2.28;;;1.25;;
21030;SDS011;61072;47.808;7.636;2023-07-08T10:40:00;1.60;;;1.10;;
21030;SDS011;61072;47.808;7.636;2023-07-08T10:42:37;2.97;;;1.00;;
21030;SDS011;61072;47.808;7.636;2023-07-08T10:45:41;1.70;;;1.00;;
21030;SDS011;61072;47.808;7.636;2023-07-08T10:48:16;3.45;;;1.88;;
21030;SDS011;61072;47.808;7.636;2023-07-08T10:58:50;2.10;;;1.17;;
21030;SDS011;61072;47.808;7.636;2023-07-08T11:01:33;2.15;;;1.20;;
21030;SDS011;61072;47.808;7.636;2023-07-08T11:04:30;2.65;;;1.13;;
21030;SDS011;61072;47.808;7.636;2023-07-08T11:07:28;3.35;;;1.60;;
21030;SDS011;61072;47.808;7.636;2023-07-08T11:13:00;3.42;;;1.08;;
21030;SDS011;61072;47.808;7.636;2023-07-08T11:15:39;2.60;;;1.33;;
21030;SDS011;61072;47.808;7.636;2023-07-08T11:18:20;2.97;;;2.08;;
21030;SDS011;61072;47.808;7.636;2023-07-08T11:20:54;2.92;;;1.67;;
21030;SDS011;61072;47.808;7.636;2023-07-08T11:23:31;2.42;;;1.55;;
21030;SDS011;61072;47.808;7.636;2023-07-08T11:28:48;6.28;;;1.80;;
21030;SDS011;61072;47.808;7.636;2023-07-08T11:31:17;4.50;;;2.88;;
21030;SDS011;61072;47.808;7.636;2023-07-08T11:33:45;4.97;;;3.50;;
21030;SDS011;61072;47.808;7.636;2023-07-08T11:36:12;6.63;;;3.70;;
21030;SDS011;61072;47.808;7.636;2023-07-08T11:38:50;7.90;;;5.82;;
21030;SDS011;61072;47.808;7.636;2023-07-08T11:41:21;3.17;;;2.17;;
21030;SDS011;61072;47.808;7.636;2023-07-08T11:43:52;16.15;;;11.40;;
21030;SDS011;61072;47.808;7.636;2023-07-08T11:46:27;16.20;;;10.40;;
21030;SDS011;61072;47.808;7.636;2023-07-08T11:48:56;11.30;;;7.45;;
21030;SDS011;61072;47.808;7.636;2023-07-08T11:51:34;6.85;;;4.18;;
21030;SDS011;61072;47.808;7.636;2023-07-08T11:59:43;2.15;;;1.65;;
21030;SDS011;61072;47.808;7.636;2023-07-08T12:02:12;4.15;;;1.67;;
21030;SDS011;61072;47.808;7.636;2023-07-08T12:07:50;2.42;;;1.40;;
21030;SDS011;61072;47.808;7.636;2023-07-08T12:10:28;3.58;;;1.73;;
21030;SDS011;61072;47.808;7.636;2023-07-08T12:13:01;2.00;;;1.40;;
21030;SDS011;61072;47.808;7.636;2023-07-08T12:15:30;2.75;;;1.48;;
21030;SDS011;61072;47.808;7.636;2023-07-08T12:17:59;3.15;;;1.42;;
21030;SDS011;61072;47.808;7.636;2023-07-08T12:20:43;3.83;;;1.40;;
21030;SDS011;61072;47.808;7.636;2023-07-08T12:23:20;1.77;;;1.23;;
21030;SDS011;61072;47.808;7.636;2023-07-08T12:25:49;3.60;;;1.60;;
21030;SDS011;61072;47.808;7.636;2023-07-08T12:28:17;4.47;;;2.05;;
21030;SDS011;61072;47.808;7.636;2023-07-08T12:30:46;4.33;;;1.70;;
21030;SDS011;61072;47.808;7.636;2023-07-08T12:33:15;4.85;;;1.73;;
21030;SDS011;61072;47.808;7.636;2023-07-08T12:35:56;3.85;;;1.48;;
21030;SDS011;61072;47.808;7.636;2023-07-08T12:41:00;3.67;;;1.45;;
21030;SDS011;61072;47.808;7.636;2023-07-08T12:43:31;6.90;;;2.75;;
21030;SDS011;61072;47.808;7.636;2023-07-08T12:45:58;2.53;;;1.65;;
21030;SDS011;61072;47.808;7.636;2023-07-08T12:48:25;2.72;;;2.10;;
21030;SDS011;61072;47.808;7.636;2023-07-08T12:50:57;4.55;;;1.50;;
21030;SDS011;61072;47.808;7.636;2023-07-08T12:53:24;6.68;;;1.60;;
21030;SDS011;61072;47.808;7.636;2023-07-08T12:55:51;2.55;;;1.60;;
21030;SDS011;61072;47.808;7.636;2023-07-08T13:00:53;4.60;;;2.40;;
21030;SDS011;61072;47.808;7.636;2023-07-08T13:03:23;2.25;;;1.60;;
21030;SDS011;61072;47.808;7.636;2023-07-08T13:05:54;2.17;;;1.52;;
21030;SDS011;61072;47.808;7.636;2023-07-08T13:08:22;6.45;;;2.03;;
21030;SDS011;61072;47.808;7.636;2023-07-08T13:10:52;3.55;;;2.08;;
21030;SDS011;61072;47.808;7.636;2023-07-08T13:13:24;5.50;;;2.42;;
21030;SDS011;61072;47.808;7.636;2023-07-08T13:16:03;4.03;;;2.20;;
21030;SDS011;61072;47.808;7.636;2023-07-08T13:18:32;3.95;;;1.67;;
21030;SDS011;61072;47.808;7.636;2023-07-08T13:23:29;4.60;;;2.08;;
21030;SDS011;61072;47.808;7.636;2023-07-08T13:25:56;6.40;;;2.47;;
21030;SDS011;61072;47.808;7.636;2023-07-08T13:30:58;5.30;;;2.55;;
21030;SDS011;61072;47.808;7.636;2023-07-08T13:33:31;3.28;;;2.10;;
21030;SDS011;61072;47.808;7.636;2023-07-08T13:36:03;2.75;;;2.00;;
21030;SDS011;61072;47.808;7.636;2023-07-08T13:38:32;4.88;;;2.13;;
21030;SDS011;61072;47.808;7.636;2023-07-08T13:41:02;4.35;;;1.80;;
21030;SDS011;61072;47.808;7.636;2023-07-08T13:43:31;6.03;;;2.45;;
21030;SDS011;61072;47.808;7.636;2023-07-08T13:45:59;6.15;;;2.38;;
21030;SDS011;61072;47.808;7.636;2023-07-08T13:48:31;2.45;;;2.03;;
21030;SDS011;61072;47.808;7.636;2023-07-08T13:51:08;4.20;;;2.63;;
21030;SDS011;61072;47.808;7.636;2023-07-08T13:53:50;3.25;;;2.15;;
21030;SDS011;61072;47.808;7.636;2023-07-08T13:56:21;6.25;;;2.20;;
21030;SDS011;61072;47.808;7.636;2023-07-08T13:58:52;3.85;;;2.45;;
21030;SDS011;61072;47.808;7.636;2023-07-08T14:01:26;7.68;;;2.50;;
21030;SDS011;61072;47.808;7.636;2023-07-08T14:03:55;3.45;;;1.92;;
21030;SDS011;61072;47.808;7.636;2023-07-08T14:06:24;4.43;;;2.83;;
21030;SDS011;61072;47.808;7.636;2023-07-08T14:08:54;5.03;;;2.60;;
21030;SDS011;61072;47.808;7.636;2023-07-08T14:11:22;4.22;;;2.75;;
21030;SDS011;61072;47.808;7.636;2023-07-08T14:13:49;2.60;;;1.80;;
21030;SDS011;61072;47.808;7.636;2023-07-08T14:16:27;6.97;;;2.80;;
21030;SDS011;61072;47.808;7.636;2023-07-08T14:18:56;4.88;;;2.90;;
21030;SDS011;61072;47.808;7.636;2023-07-08T14:21:24;5.05;;;2.63;;
21030;SDS011;61072;47.808;7.636;2023-07-08T14:23:51;4.45;;;3.00;;
21030;SDS011;61072;47.808;7.636;2023-07-08T14:26:18;3.95;;;2.28;;
21030;SDS011;61072;47.808;7.636;2023-07-08T14:28:44;7.20;;;3.17;;
21030;SDS011;61072;47.808;7.636;2023-07-08T14:31:11;3.90;;;2.50;;
21030;SDS011;61072;47.808;7.636;2023-07-08T14:33:43;5.82;;;3.35;;
21030;SDS011;61072;47.808;7.636;2023-07-08T14:36:10;6.25;;;2.40;;
21030;SDS011;61072;47.808;7.636;2023-07-08T14:38:37;4.88;;;2.25;;
21030;SDS011;61072;47.808;7.636;2023-07-08T14:41:04;5.75;;;2.70;;
21030;SDS011;61072;47.808;7.636;2023-07-08T14:43:31;5.85;;;2.55;;
21030;SDS011;61072;47.808;7.636;2023-07-08T14:46:00;4.35;;;2.67;;
21030;SDS011;61072;47.808;7.636;2023-07-08T14:48:29;4.03;;;2.28;;
21030;SDS011;61072;47.808;7.636;2023-07-08T14:50:58;6.55;;;2.33;;
21030;SDS011;61072;47.808;7.636;2023-07-08T14:53:25;4.72;;;2.33;;
21030;SDS011;61072;47.808;7.636;2023-07-08T14:55:53;6.10;;;2.45;;
21030;SDS011;61072;47.808;7.636;2023-07-08T14:58:30;5.70;;;2.67;;
21030;SDS011;61072;47.808;7.636;2023-07-08T15:01:00;3.28;;;2.40;;
21030;SDS011;61072;47.808;7.636;2023-07-08T15:03:33;3.92;;;2.50;;
21030;SDS011;61072;47.808;7.636;2023-07-08T15:06:00;3.30;;;2.38;;
21030;SDS011;61072;47.808;7.636;2023-07-08T15:08:27;5.53;;;2.20;;
21030;SDS011;61072;47.808;7.636;2023-07-08T15:10:54;4.35;;;2.72;;
21030;SDS011;61072;47.808;7.636;2023-07-08T15:13:21;5.60;;;2.80;;
21030;SDS011;61072;47.808;7.636;2023-07-08T15:15:52;4.60;;;2.50;;
21030;SDS011;61072;47.808;7.636;2023-07-08T15:18:19;5.03;;;2.33;;
21030;SDS011;61072;47.808;7.636;2023-07-08T15:20:46;5.72;;;2.50;;
21030;SDS011;61072;47.808;7.636;2023-07-08T15:23:13;5.03;;;3.10;;
21030;SDS011;61072;47.808;7.636;2023-07-08T15:25:40;4.47;;;3.15;;
21030;SDS011;61072;47.808;7.636;2023-07-08T15:28:53;8.98;;;4.15;;
21030;SDS011;61072;47.808;7.636;2023-07-08T15:31:17;6.88;;;2.95;;
21030;SDS011;61072;47.808;7.636;2023-07-08T15:33:47;8.77;;;2.85;;
21030;SDS011;61072;47.808;7.636;2023-07-08T15:36:13;4.90;;;2.35;;
21030;SDS011;61072;47.808;7.636;2023-07-08T15:38:40;8.15;;;2.90;;
21030;SDS011;61072;47.808;7.636;2023-07-08T15:41:14;4.60;;;2.58;;
21030;SDS011;61072;47.808;7.636;2023-07-08T15:43:48;3.40;;;2.40;;
21030;SDS011;61072;47.808;7.636;2023-07-08T15:46:15;5.25;;;2.97;;
21030;SDS011;61072;47.808;7.636;2023-07-08T15:48:43;5.45;;;2.83;;
21030;SDS011;61072;47.808;7.636;2023-07-08T15:51:16;8.25;;;3.22;;
21030;SDS011;61072;47.808;7.636;2023-07-08T15:53:44;5.85;;;3.03;;
21030;SDS011;61072;47.808;7.636;2023-07-08T15:56:12;7.63;;;2.60;;
21030;SDS011;61072;47.808;7.636;2023-07-08T15:58:41;5.35;;;2.55;;
21030;SDS011;61072;47.808;7.636;2023-07-08T16:01:18;5.03;;;2.47;;
21030;SDS011;61072;47.808;7.636;2023-07-08T16:03:48;3.72;;;2.42;;
21030;SDS011;61072;47.808;7.636;2023-07-08T16:06:15;9.35;;;2.92;;
21030;SDS011;61072;47.808;7.636;2023-07-08T16:08:43;7.55;;;3.00;;
21030;SDS011;61072;47.808;7.636;2023-07-08T16:11:20;4.53;;;2.75;;
21030;SDS011;61072;47.808;7.636;2023-07-08T16:13:53;3.88;;;2.60;;
21030;SDS011;61072;47.808;7.636;2023-07-08T16:16:20;4.70;;;2.60;;
21030;SDS011;61072;47.808;7.636;2023-07-08T16:18:49;2.90;;;2.00;;
21030;SDS011;61072;47.808;7.636;2023-07-08T16:21:15;3.88;;;2.60;;
21030;SDS011;61072;47.808;7.636;2023-07-08T16:23:42;4.05;;;2.70;;
21030;SDS011;61072;47.808;7.636;2023-07-08T16:26:09;6.38;;;3.42;;
21030;SDS011;61072;47.808;7.636;2023-07-08T16:28:40;7.55;;;3.55;;
21030;SDS011;61072;47.808;7.636;2023-07-08T16:33:43;3.65;;;2.40;;
21030;SDS011;61072;47.808;7.636;2023-07-08T16:36:15;5.20;;;2.42;;
21030;SDS011;61072;47.808;7.636;2023-07-08T16:38:44;5.13;;;2.38;;
21030;SDS011;61072;47.808;7.636;2023-07-08T16:41:11;5.60;;;2.17;;
21030;SDS011;61072;47.808;7.636;2023-07-08T16:43:42;4.15;;;2.03;;
21030;SDS011;61072;47.808;7.636;2023-07-08T16:46:10;5.40;;;2.75;;
21030;SDS011;61072;47.808;7.636;2023-07-08T16:48:37;5.18;;;2.67;;
21030;SDS011;61072;47.808;7.636;2023-07-08T16:51:14;4.72;;;2.70;;
21030;SDS011;61072;47.808;7.636;2023-07-08T16:53:43;3.90;;;2.35;;
21030;SDS011;61072;47.808;7.636;2023-07-08T16:56:10;3.47;;;2.30;;
21030;SDS011;61072;47.808;7.636;2023-07-08T16:58:38;9.02;;;3.00;;
21030;SDS011;61072;47.808;7.636;2023-07-08T17:01:09;6.60;;;2.45;;
21030;SDS011;61072;47.808;7.636;2023-07-08T17:03:44;6.88;;;2.42;;
21030;SDS011;61072;47.808;7.636;2023-07-08T17:06:11;4.82;;;2.38;;
21030;SDS011;61072;47.808;7.636;2023-07-08T17:08:39;4.15;;;2.60;;
21030;SDS011;61072;47.808;7.636;2023-07-08T17:11:06;4.22;;;2.38;;
21030;SDS011;61072;47.808;7.636;2023-07-08T17:13:33;5.10;;;2.60;;
21030;SDS011;61072;47.808;7.636;2023-07-08T17:16:00;5.15;;;2.97;;
21030;SDS011;61072;47.808;7.636;2023-07-08T17:18:27;7.15;;;2.60;;
21030;SDS011;61072;47.808;7.636;2023-07-08T17:20:54;5.97;;;2.65;;
21030;SDS011;61072;47.808;7.636;2023-07-08T17:23:26;7.15;;;2.53;;
21030;SDS011;61072;47.808;7.636;2023-07-08T17:25:53;6.63;;;2.85;;
21030;SDS011;61072;47.808;7.636;2023-07-08T17:28:20;5.50;;;2.53;;
21030;SDS011;61072;47.808;7.636;2023-07-08T17:30:48;7.75;;;2.63;;
21030;SDS011;61072;47.808;7.636;2023-07-08T17:35:45;5.45;;;2.42;;
21030;SDS011;61072;47.808;7.636;2023-07-08T17:38:19;4.80;;;2.55;;
21030;SDS011;61072;47.808;7.636;2023-07-08T17:40:48;4.20;;;2.40;;
21030;SDS011;61072;47.808;7.636;2023-07-08T17:43:14;6.53;;;2.40;;
21030;SDS011;61072;47.808;7.636;2023-07-08T17:45:42;4.00;;;2.45;;
21030;SDS011;61072;47.808;7.636;2023-07-08T17:48:23;5.03;;;2.58;;
21030;SDS011;61072;47.808;7.636;2023-07-08T17:50:51;4.90;;;2.40;;
21030;SDS011;61072;47.808;7.636;2023-07-08T17:53:18;5.47;;;3.00;;
21030;SDS011;61072;47.808;7.636;2023-07-08T17:55:47;6.40;;;3.15;;
21030;SDS011;61072;47.808;7.636;2023-07-08T17:58:16;5.18;;;2.80;;
21030;SDS011;61072;47.808;7.636;2023-07-08T18:00:45;5.30;;;2.80;;
21030;SDS011;61072;47.808;7.636;2023-07-08T18:03:17;5.47;;;2.95;;
21030;SDS011;61072;47.808;7.636;2023-07-08T18:05:44;5.85;;;2.42;;
21030;SDS011;61072;47.808;7.636;2023-07-08T18:08:10;5.63;;;2.70;;
21030;SDS011;61072;47.808;7.636;2023-07-08T18:10:37;5.20;;;2.67;;
21030;SDS011;61072;47.808;7.636;2023-07-08T18:13:05;7.22;;;2.90;;
21030;SDS011;61072;47.808;7.636;2023-07-08T18:15:43;6.85;;;3.10;;
21030;SDS011;61072;47.808;7.636;2023-07-08T18:18:11;5.22;;;2.50;;
21030;SDS011;61072;47.808;7.636;2023-07-08T18:20:39;5.80;;;2.90;;
21030;SDS011;61072;47.808;7.636;2023-07-08T18:23:13;4.78;;;2.83;;
21030;SDS011;61072;47.808;7.636;2023-07-08T18:25:43;7.07;;;3.13;;
21030;SDS011;61072;47.808;7.636;2023-07-08T18:28:10;6.03;;;2.97;;
21030;SDS011;61072;47.808;7.636;2023-07-08T18:30:39;5.00;;;2.83;;
21030;SDS011;61072;47.808;7.636;2023-07-08T18:33:13;7.82;;;3.13;;
21030;SDS011;61072;47.808;7.636;2023-07-08T18:35:41;6.80;;;2.90;;
21030;SDS011;61072;47.808;7.636;2023-07-08T18:38:08;7.75;;;2.90;;
21030;SDS011;61072;47.808;7.636;2023-07-08T18:40:36;5.47;;;2.75;;
21030;SDS011;61072;47.808;7.636;2023-07-08T18:43:25;8.60;;;3.92;;
21030;SDS011;61072;47.808;7.636;2023-07-08T18:45:55;6.22;;;3.33;;
21030;SDS011;61072;47.808;7.636;2023-07-08T18:48:22;4.07;;;2.45;;
21030;SDS011;61072;47.808;7.636;2023-07-08T18:50:53;3.97;;;2.28;;
21030;SDS011;61072;47.808;7.636;2023-07-08T18:53:21;3.85;;;2.85;;
21030;SDS011;61072;47.808;7.636;2023-07-08T18:55:49;8.55;;;2.85;;
21030;SDS011;61072;47.808;7.636;2023-07-08T18:58:18;5.68;;;2.67;;
21030;SDS011;61072;47.808;7.636;2023-07-08T19:00:46;6.00;;;2.28;;
21030;SDS011;61072;47.808;7.636;2023-07-08T19:03:24;7.05;;;3.50;;
21030;SDS011;61072;47.808;7.636;2023-07-08T19:05:52;6.70;;;3.03;;
21030;SDS011;61072;47.808;7.636;2023-07-08T19:08:20;6.60;;;3.30;;
21030;SDS011;61072;47.808;7.636;2023-07-08T19:10:51;4.00;;;2.85;;
21030;SDS011;61072;47.808;7.636;2023-07-08T19:13:21;5.80;;;2.60;;
21030;SDS011;61072;47.808;7.636;2023-07-08T19:15:50;5.28;;;2.95;;
21030;SDS011;61072;47.808;7.636;2023-07-08T19:18:21;6.03;;;3.55;;
21030;SDS011;61072;47.808;7.636;2023-07-08T19:20:48;7.43;;;2.90;;
21030;SDS011;61072;47.808;7.636;2023-07-08T19:23:20;5.50;;;3.33;;
21030;SDS011;61072;47.808;7.636;2023-07-08T19:25:49;5.07;;;3.03;;
21030;SDS011;61072;47.808;7.636;2023-07-08T19:28:16;7.65;;;2.83;;
21030;SDS011;61072;47.808;7.636;2023-07-08T19:30:43;6.70;;;3.30;;
21030;SDS011;61072;47.808;7.636;2023-07-08T19:33:17;8.57;;;3.00;;
21030;SDS011;61072;47.808;7.636;2023-07-08T19:35:44;7.05;;;2.88;;
21030;SDS011;61072;47.808;7.636;2023-07-08T19:38:13;5.85;;;3.20;;
21030;SDS011;61072;47.808;7.636;2023-07-08T19:40:49;6.65;;;2.88;;
21030;SDS011;61072;47.808;7.636;2023-07-08T19:43:20;9.15;;;3.10;;
21030;SDS011;61072;47.808;7.636;2023-07-08T19:45:48;5.80;;;2.90;;
21030;SDS011;61072;47.808;7.636;2023-07-08T19:48:15;4.47;;;3.22;;
21030;SDS011;61072;47.808;7.636;2023-07-08T19:50:41;6.55;;;2.72;;
21030;SDS011;61072;47.808;7.636;2023-07-08T19:53:10;6.03;;;3.25;;
21030;SDS011;61072;47.808;7.636;2023-07-08T19:55:38;5.05;;;3.00;;
21030;SDS011;61072;47.808;7.636;2023-07-08T19:58:08;6.15;;;2.78;;
21030;SDS011;61072;47.808;7.636;2023-07-08T20:03:05;5.90;;;3.17;;
21030;SDS011;61072;47.808;7.636;2023-07-08T20:05:33;4.45;;;2.55;;
21030;SDS011;61072;47.808;7.636;2023-07-08T20:08:08;6.80;;;3.10;;
21030;SDS011;61072;47.808;7.636;2023-07-08T20:10:40;8.07;;;2.92;;
21030;SDS011;61072;47.808;7.636;2023-07-08T20:13:09;7.47;;;2.88;;
21030;SDS011;61072;47.808;7.636;2023-07-08T20:18:08;4.70;;;3.00;;
21030;SDS011;61072;47.808;7.636;2023-07-08T20:20:37;6.80;;;3.10;;
21030;SDS011;61072;47.808;7.636;2023-07-08T20:23:03;4.80;;;3.05;;
21030;SDS011;61072;47.808;7.636;2023-07-08T20:25:30;4.18;;;2.30;;
21030;SDS011;61072;47.808;7.636;2023-07-08T20:27:57;4.28;;;2.80;;
21030;SDS011;61072;47.808;7.636;2023-07-08T20:30:25;9.40;;;3.70;;
21030;SDS011;61072;47.808;7.636;2023-07-08T20:32:54;4.55;;;2.72;;
21030;SDS011;61072;47.808;7.636;2023-07-08T20:35:23;7.13;;;2.67;;
21030;SDS011;61072;47.808;7.636;2023-07-08T20:37:51;8.25;;;2.85;;
21030;SDS011;61072;47.808;7.636;2023-07-08T20:40:23;5.30;;;2.88;;
21030;SDS011;61072;47.808;7.636;2023-07-08T20:42:52;7.88;;;3.00;;
21030;SDS011;61072;47.808;7.636;2023-07-08T20:45:26;3.92;;;2.45;;
21030;SDS011;61072;47.808;7.636;2023-07-08T20:47:55;7.38;;;2.97;;
21030;SDS011;61072;47.808;7.636;2023-07-08T20:50:23;4.88;;;2.78;;
21030;SDS011;61072;47.808;7.636;2023-07-08T20:52:51;4.55;;;2.92;;
21030;SDS011;61072;47.808;7.636;2023-07-08T20:55:19;4.25;;;2.90;;
21030;SDS011;61072;47.808;7.636;2023-07-08T20:57:48;5.65;;;3.40;;
21030;SDS011;61072;47.808;7.636;2023-07-08T21:00:20;6.25;;;2.90;;
21030;SDS011;61072;47.808;7.636;2023-07-08T21:02:55;10.63;;;3.22;;
21030;SDS011;61072;47.808;7.636;2023-07-08T21:05:23;3.08;;;2.50;;
21030;SDS011;61072;47.808;7.636;2023-07-08T21:07:53;3.90;;;2.42;;
21030;SDS011;61072;47.808;7.636;2023-07-08T21:10:22;8.63;;;3.00;;
21030;SDS011;61072;47.808;7.636;2023-07-08T21:12:51;5.20;;;2.58;;
21030;SDS011;61072;47.808;7.636;2023-07-08T21:15:19;7.88;;;3.08;;
21030;SDS011;61072;47.808;7.636;2023-07-08T21:17:49;4.22;;;2.95;;
21030;SDS011;61072;47.808;7.636;2023-07-08T21:20:17;7.55;;;2.97;;
21030;SDS011;61072;47.808;7.636;2023-07-08T21:22:47;6.90;;;2.75;;
21030;SDS011;61072;47.808;7.636;2023-07-08T21:25:15;5.15;;;3.22;;
21030;SDS011;61072;47.808;7.636;2023-07-08T21:27:43;6.07;;;3.05;;
21030;SDS011;61072;47.808;7.636;2023-07-08T21:30:15;5.30;;;2.97;;
21030;SDS011;61072;47.808;7.636;2023-07-08T21:32:49;4.38;;;2.78;;
21030;SDS011;61072;47.808;7.636;2023-07-08T21:35:17;4.72;;;2.70;;
21030;SDS011;61072;47.808;7.636;2023-07-08T21:37:48;6.10;;;3.03;;
21030;SDS011;61072;47.808;7.636;2023-07-08T21:40:29;4.93;;;2.50;;
21030;SDS011;61072;47.808;7.636;2023-07-08T21:43:04;5.38;;;2.80;;
21030;SDS011;61072;47.808;7.636;2023-07-08T21:45:36;4.40;;;2.50;;
21030;SDS011;61072;47.808;7.636;2023-07-08T21:48:04;6.30;;;3.00;;